Terminal Aerodrome Forecast
Issued by NWS

Current Version | Previous Version | Graphics & Text | Print | Product List | Glossary On
Versions: 1 2 3 4 5 6 7 8 9 10 11 12 13 14 15 16 17 18 19 20 21
000
FTUS41 KPBZ 281723
TAFHLG
TAF
KHLG 281723Z 2818/2918 28010G16KT P6SM SCT020 BKN035
     FM290300 29010KT P6SM SCT020
     FM290900 VRB04KT 5SM BR FEW020
     FM291500 16005KT P6SM BKN100=

USA.gov is the U.S. government's official web portal to all federal, state and local government web resources and services.